sensor_id;sensor_type;location;lat;lon;timestamp;temperature;humidity
26691;DHT22;14307;51.718;8.938;2022-07-29T00:02:27;17.80;99.90
26691;DHT22;14307;51.718;8.938;2022-07-29T00:04:54;17.80;99.90
26691;DHT22;14307;51.718;8.938;2022-07-29T00:07:21;17.70;99.90
26691;DHT22;14307;51.718;8.938;2022-07-29T00:09:47;17.80;99.90
26691;DHT22;14307;51.718;8.938;2022-07-29T00:12:18;17.70;99.90
26691;DHT22;14307;51.718;8.938;2022-07-29T00:14:52;17.80;99.90
26691;DHT22;14307;51.718;8.938;2022-07-29T00:17:19;17.80;99.90
26691;DHT22;14307;51.718;8.938;2022-07-29T00:19:46;17.80;99.90
26691;DHT22;14307;51.718;8.938;2022-07-29T00:22:12;17.80;99.90
26691;DHT22;14307;51.718;8.938;2022-07-29T00:24:39;17.90;99.90
26691;DHT22;14307;51.718;8.938;2022-07-29T00:27:06;17.90;99.90
26691;DHT22;14307;51.718;8.938;2022-07-29T00:29:33;17.80;99.90
26691;DHT22;14307;51.718;8.938;2022-07-29T00:32:01;17.80;99.90
26691;DHT22;14307;51.718;8.938;2022-07-29T00:34:30;17.80;99.90
26691;DHT22;14307;51.718;8.938;2022-07-29T00:37:16;17.80;99.90
26691;DHT22;14307;51.718;8.938;2022-07-29T00:39:43;17.90;99.90
26691;DHT22;14307;51.718;8.938;2022-07-29T00:42:10;17.80;99.90
26691;DHT22;14307;51.718;8.938;2022-07-29T00:44:41;17.80;99.90
26691;DHT22;14307;51.718;8.938;2022-07-29T00:47:09;17.80;99.90
26691;DHT22;14307;51.718;8.938;2022-07-29T00:49:41;17.80;99.90
26691;DHT22;14307;51.718;8.938;2022-07-29T00:52:10;17.70;99.90
26691;DHT22;14307;51.718;8.938;2022-07-29T00:54:39;17.80;99.90
26691;DHT22;14307;51.718;8.938;2022-07-29T00:57:11;17.70;99.90
26691;DHT22;14307;51.718;8.938;2022-07-29T00:59:38;17.70;99.90
26691;DHT22;14307;51.718;8.938;2022-07-29T01:02:05;17.70;99.90
26691;DHT22;14307;51.718;8.938;2022-07-29T01:04:32;17.70;99.90
26691;DHT22;14307;51.718;8.938;2022-07-29T01:07:01;17.70;99.90
26691;DHT22;14307;51.718;8.938;2022-07-29T01:09:29;17.70;99.90
26691;DHT22;14307;51.718;8.938;2022-07-29T01:12:15;17.60;99.90
26691;DHT22;14307;51.718;8.938;2022-07-29T01:14:43;17.60;99.90
26691;DHT22;14307;51.718;8.938;2022-07-29T01:17:12;17.60;99.90
26691;DHT22;14307;51.718;8.938;2022-07-29T01:19:56;17.60;99.90
26691;DHT22;14307;51.718;8.938;2022-07-29T01:22:26;17.60;99.90
26691;DHT22;14307;51.718;8.938;2022-07-29T01:25:00;17.60;99.90
26691;DHT22;14307;51.718;8.938;2022-07-29T01:30:05;17.60;99.90
26691;DHT22;14307;51.718;8.938;2022-07-29T01:32:37;17.50;99.90
26691;DHT22;14307;51.718;8.938;2022-07-29T01:37:43;17.50;99.90
26691;DHT22;14307;51.718;8.938;2022-07-29T01:40:41;17.60;99.90
26691;DHT22;14307;51.718;8.938;2022-07-29T01:43:20;17.60;99.90
26691;DHT22;14307;51.718;8.938;2022-07-29T01:46:06;17.40;99.90
26691;DHT22;14307;51.718;8.938;2022-07-29T01:48:48;17.50;99.90
26691;DHT22;14307;51.718;8.938;2022-07-29T01:51:42;17.40;99.90
26691;DHT22;14307;51.718;8.938;2022-07-29T01:54:14;17.50;99.90
26691;DHT22;14307;51.718;8.938;2022-07-29T01:56:45;17.40;99.90
26691;DHT22;14307;51.718;8.938;2022-07-29T01:59:15;17.40;99.90
26691;DHT22;14307;51.718;8.938;2022-07-29T02:01:43;17.40;99.90
26691;DHT22;14307;51.718;8.938;2022-07-29T02:04:11;17.40;99.90
26691;DHT22;14307;51.718;8.938;2022-07-29T02:06:58;17.40;99.90
26691;DHT22;14307;51.718;8.938;2022-07-29T02:09:27;17.30;99.90
26691;DHT22;14307;51.718;8.938;2022-07-29T02:11:56;17.20;99.90
26691;DHT22;14307;51.718;8.938;2022-07-29T02:14:24;17.30;99.90
26691;DHT22;14307;51.718;8.938;2022-07-29T02:16:55;17.10;99.90
26691;DHT22;14307;51.718;8.938;2022-07-29T02:19:26;17.10;99.90
26691;DHT22;14307;51.718;8.938;2022-07-29T02:21:55;17.10;99.90
26691;DHT22;14307;51.718;8.938;2022-07-29T02:24:23;17.00;99.90
26691;DHT22;14307;51.718;8.938;2022-07-29T02:26:53;17.00;99.90
26691;DHT22;14307;51.718;8.938;2022-07-29T02:29:23;17.00;99.90
26691;DHT22;14307;51.718;8.938;2022-07-29T02:31:52;17.00;99.90
26691;DHT22;14307;51.718;8.938;2022-07-29T02:34:20;17.00;99.90
26691;DHT22;14307;51.718;8.938;2022-07-29T02:36:49;17.00;99.90
26691;DHT22;14307;51.718;8.938;2022-07-29T02:39:17;17.00;99.90
26691;DHT22;14307;51.718;8.938;2022-07-29T02:41:51;17.00;99.90
26691;DHT22;14307;51.718;8.938;2022-07-29T02:44:21;17.00;99.90
26691;DHT22;14307;51.718;8.938;2022-07-29T02:46:53;17.00;99.90
26691;DHT22;14307;51.718;8.938;2022-07-29T02:49:32;17.00;99.90
26691;DHT22;14307;51.718;8.938;2022-07-29T02:54:42;17.00;99.90
26691;DHT22;14307;51.718;8.938;2022-07-29T02:57:31;17.00;99.90
26691;DHT22;14307;51.718;8.938;2022-07-29T03:00:03;17.00;99.90
26691;DHT22;14307;51.718;8.938;2022-07-29T03:02:37;17.00;99.90
26691;DHT22;14307;51.718;8.938;2022-07-29T03:05:06;16.90;99.90
26691;DHT22;14307;51.718;8.938;2022-07-29T03:07:36;16.90;99.90
26691;DHT22;14307;51.718;8.938;2022-07-29T03:10:06;16.90;99.90
26691;DHT22;14307;51.718;8.938;2022-07-29T03:12:40;16.80;99.90
26691;DHT22;14307;51.718;8.938;2022-07-29T03:15:08;16.90;99.90
26691;DHT22;14307;51.718;8.938;2022-07-29T03:17:36;16.90;99.90
26691;DHT22;14307;51.718;8.938;2022-07-29T03:20:04;16.90;99.90
26691;DHT22;14307;51.718;8.938;2022-07-29T03:22:33;16.90;99.90
26691;DHT22;14307;51.718;8.938;2022-07-29T03:25:08;16.90;99.90
26691;DHT22;14307;51.718;8.938;2022-07-29T03:27:35;16.90;99.90
26691;DHT22;14307;51.718;8.938;2022-07-29T03:30:03;16.90;99.90
26691;DHT22;14307;51.718;8.938;2022-07-29T03:32:34;17.00;99.90
26691;DHT22;14307;51.718;8.938;2022-07-29T03:35:01;17.00;99.90
26691;DHT22;14307;51.718;8.938;2022-07-29T03:37:28;17.00;99.90
26691;DHT22;14307;51.718;8.938;2022-07-29T03:39:57;17.00;99.90
26691;DHT22;14307;51.718;8.938;2022-07-29T03:42:27;17.10;99.90
26691;DHT22;14307;51.718;8.938;2022-07-29T03:45:03;17.10;99.90
26691;DHT22;14307;51.718;8.938;2022-07-29T03:47:33;17.10;99.90
26691;DHT22;14307;51.718;8.938;2022-07-29T03:50:17;17.10;99.90
26691;DHT22;14307;51.718;8.938;2022-07-29T03:52:46;17.10;99.90
26691;DHT22;14307;51.718;8.938;2022-07-29T03:55:14;17.10;99.90
26691;DHT22;14307;51.718;8.938;2022-07-29T03:57:43;17.10;99.90
26691;DHT22;14307;51.718;8.938;2022-07-29T04:00:11;17.10;99.90
26691;DHT22;14307;51.718;8.938;2022-07-29T04:02:38;17.10;99.90
26691;DHT22;14307;51.718;8.938;2022-07-29T04:05:11;17.10;99.90
26691;DHT22;14307;51.718;8.938;2022-07-29T04:07:38;17.20;99.90
26691;DHT22;14307;51.718;8.938;2022-07-29T04:10:05;17.30;99.90
26691;DHT22;14307;51.718;8.938;2022-07-29T04:12:32;17.20;99.90
26691;DHT22;14307;51.718;8.938;2022-07-29T04:14:59;17.20;99.90
26691;DHT22;14307;51.718;8.938;2022-07-29T04:17:26;17.20;99.90
26691;DHT22;14307;51.718;8.938;2022-07-29T04:19:53;17.20;99.90
26691;DHT22;14307;51.718;8.938;2022-07-29T04:22:20;17.20;99.90
26691;DHT22;14307;51.718;8.938;2022-07-29T04:24:48;17.30;99.90
26691;DHT22;14307;51.718;8.938;2022-07-29T04:27:15;17.20;99.90
26691;DHT22;14307;51.718;8.938;2022-07-29T04:29:42;17.20;99.90
26691;DHT22;14307;51.718;8.938;2022-07-29T04:32:26;17.20;99.90
26691;DHT22;14307;51.718;8.938;2022-07-29T04:34:53;17.20;99.90
26691;DHT22;14307;51.718;8.938;2022-07-29T04:37:20;17.20;99.90
26691;DHT22;14307;51.718;8.938;2022-07-29T04:39:47;17.30;99.90
26691;DHT22;14307;51.718;8.938;2022-07-29T04:42:14;17.20;99.90
26691;DHT22;14307;51.718;8.938;2022-07-29T04:44:42;17.30;99.90
26691;DHT22;14307;51.718;8.938;2022-07-29T04:47:09;17.30;99.90
26691;DHT22;14307;51.718;8.938;2022-07-29T04:49:39;17.30;99.90
26691;DHT22;14307;51.718;8.938;2022-07-29T04:52:06;17.40;99.90
26691;DHT22;14307;51.718;8.938;2022-07-29T04:54:33;17.40;99.90
26691;DHT22;14307;51.718;8.938;2022-07-29T04:57:00;17.40;99.90
26691;DHT22;14307;51.718;8.938;2022-07-29T04:59:27;17.30;99.90
26691;DHT22;14307;51.718;8.938;2022-07-29T05:01:53;17.20;99.90
26691;DHT22;14307;51.718;8.938;2022-07-29T05:04:20;17.10;99.90
26691;DHT22;14307;51.718;8.938;2022-07-29T05:06:47;17.20;99.90
26691;DHT22;14307;51.718;8.938;2022-07-29T05:09:14;17.20;99.90
26691;DHT22;14307;51.718;8.938;2022-07-29T05:11:41;17.20;99.90
26691;DHT22;14307;51.718;8.938;2022-07-29T05:14:07;17.20;99.90
26691;DHT22;14307;51.718;8.938;2022-07-29T05:16:35;17.20;99.90
26691;DHT22;14307;51.718;8.938;2022-07-29T05:19:02;17.20;99.90
26691;DHT22;14307;51.718;8.938;2022-07-29T05:21:29;17.10;99.90
26691;DHT22;14307;51.718;8.938;2022-07-29T05:23:56;17.00;99.90
26691;DHT22;14307;51.718;8.938;2022-07-29T05:26:23;16.90;99.90
26691;DHT22;14307;51.718;8.938;2022-07-29T05:28:50;16.90;99.90
26691;DHT22;14307;51.718;8.938;2022-07-29T05:31:17;16.90;99.90
26691;DHT22;14307;51.718;8.938;2022-07-29T05:33:44;16.80;99.90
26691;DHT22;14307;51.718;8.938;2022-07-29T05:36:11;16.90;99.90
26691;DHT22;14307;51.718;8.938;2022-07-29T05:38:38;16.90;99.90
26691;DHT22;14307;51.718;8.938;2022-07-29T05:41:05;17.00;99.90
26691;DHT22;14307;51.718;8.938;2022-07-29T05:43:32;17.00;99.90
26691;DHT22;14307;51.718;8.938;2022-07-29T05:45:59;17.10;99.90
26691;DHT22;14307;51.718;8.938;2022-07-29T05:48:26;17.10;99.90
26691;DHT22;14307;51.718;8.938;2022-07-29T05:50:53;16.90;99.90
26691;DHT22;14307;51.718;8.938;2022-07-29T05:53:20;16.90;99.90
26691;DHT22;14307;51.718;8.938;2022-07-29T05:55:48;16.80;99.90
26691;DHT22;14307;51.718;8.938;2022-07-29T05:58:15;16.70;99.90
26691;DHT22;14307;51.718;8.938;2022-07-29T06:00:42;16.70;99.90
26691;DHT22;14307;51.718;8.938;2022-07-29T06:03:08;16.60;99.90
26691;DHT22;14307;51.718;8.938;2022-07-29T06:05:35;16.40;99.90
26691;DHT22;14307;51.718;8.938;2022-07-29T06:08:02;16.50;99.90
26691;DHT22;14307;51.718;8.938;2022-07-29T06:10:29;16.50;99.90
26691;DHT22;14307;51.718;8.938;2022-07-29T06:12:56;16.50;99.90
26691;DHT22;14307;51.718;8.938;2022-07-29T06:15:22;16.60;99.90
26691;DHT22;14307;51.718;8.938;2022-07-29T06:17:49;16.60;99.90
26691;DHT22;14307;51.718;8.938;2022-07-29T06:20:27;16.60;99.90
26691;DHT22;14307;51.718;8.938;2022-07-29T06:22:56;16.50;99.90
26691;DHT22;14307;51.718;8.938;2022-07-29T06:25:23;16.50;99.90
26691;DHT22;14307;51.718;8.938;2022-07-29T06:27:51;16.40;99.90
26691;DHT22;14307;51.718;8.938;2022-07-29T06:30:18;16.40;99.90
26691;DHT22;14307;51.718;8.938;2022-07-29T06:32:45;16.40;99.90
26691;DHT22;14307;51.718;8.938;2022-07-29T06:35:12;16.40;99.90
26691;DHT22;14307;51.718;8.938;2022-07-29T06:37:59;16.40;99.90
26691;DHT22;14307;51.718;8.938;2022-07-29T06:40:26;16.30;99.90
26691;DHT22;14307;51.718;8.938;2022-07-29T06:43:11;16.30;99.90
26691;DHT22;14307;51.718;8.938;2022-07-29T06:45:38;16.30;99.90
26691;DHT22;14307;51.718;8.938;2022-07-29T06:48:08;16.30;99.90
26691;DHT22;14307;51.718;8.938;2022-07-29T06:50:36;16.30;99.90
26691;DHT22;14307;51.718;8.938;2022-07-29T06:53:03;16.30;99.90
26691;DHT22;14307;51.718;8.938;2022-07-29T06:55:30;16.30;99.90
26691;DHT22;14307;51.718;8.938;2022-07-29T06:57:57;16.40;99.90
26691;DHT22;14307;51.718;8.938;2022-07-29T07:00:23;16.50;99.90
26691;DHT22;14307;51.718;8.938;2022-07-29T07:02:50;16.60;99.90
26691;DHT22;14307;51.718;8.938;2022-07-29T07:05:17;16.70;99.90
26691;DHT22;14307;51.718;8.938;2022-07-29T07:07:44;16.80;99.90
26691;DHT22;14307;51.718;8.938;2022-07-29T07:10:11;16.90;99.90
26691;DHT22;14307;51.718;8.938;2022-07-29T07:12:38;17.00;99.90
26691;DHT22;14307;51.718;8.938;2022-07-29T07:15:05;16.90;99.90
26691;DHT22;14307;51.718;8.938;2022-07-29T07:17:32;16.80;99.90
26691;DHT22;14307;51.718;8.938;2022-07-29T07:19:59;16.90;99.90
26691;DHT22;14307;51.718;8.938;2022-07-29T07:22:25;17.00;99.90
26691;DHT22;14307;51.718;8.938;2022-07-29T07:24:52;17.20;99.90
26691;DHT22;14307;51.718;8.938;2022-07-29T07:27:19;17.20;99.90
26691;DHT22;14307;51.718;8.938;2022-07-29T07:29:45;17.20;99.90
26691;DHT22;14307;51.718;8.938;2022-07-29T07:32:12;17.30;99.90
26691;DHT22;14307;51.718;8.938;2022-07-29T07:34:40;17.20;99.90
26691;DHT22;14307;51.718;8.938;2022-07-29T07:37:06;17.30;99.90
26691;DHT22;14307;51.718;8.938;2022-07-29T07:39:33;17.40;99.90
26691;DHT22;14307;51.718;8.938;2022-07-29T07:42:00;17.60;99.90
26691;DHT22;14307;51.718;8.938;2022-07-29T07:44:27;17.80;99.90
26691;DHT22;14307;51.718;8.938;2022-07-29T07:46:53;17.70;99.90
26691;DHT22;14307;51.718;8.938;2022-07-29T07:49:20;17.80;99.90
26691;DHT22;14307;51.718;8.938;2022-07-29T07:51:47;17.70;99.90
26691;DHT22;14307;51.718;8.938;2022-07-29T07:54:16;17.60;99.90
26691;DHT22;14307;51.718;8.938;2022-07-29T07:56:46;17.70;99.90
26691;DHT22;14307;51.718;8.938;2022-07-29T07:59:18;17.60;99.90
26691;DHT22;14307;51.718;8.938;2022-07-29T08:01:45;17.50;99.90
26691;DHT22;14307;51.718;8.938;2022-07-29T08:04:21;17.40;99.90
26691;DHT22;14307;51.718;8.938;2022-07-29T08:06:54;17.50;99.90
26691;DHT22;14307;51.718;8.938;2022-07-29T08:09:22;17.50;99.90
26691;DHT22;14307;51.718;8.938;2022-07-29T08:11:57;17.50;99.90
26691;DHT22;14307;51.718;8.938;2022-07-29T08:14:25;17.50;99.90
26691;DHT22;14307;51.718;8.938;2022-07-29T08:16:52;17.60;99.90
26691;DHT22;14307;51.718;8.938;2022-07-29T08:19:18;17.80;99.90
26691;DHT22;14307;51.718;8.938;2022-07-29T08:21:45;18.00;99.90
26691;DHT22;14307;51.718;8.938;2022-07-29T08:24:12;18.10;99.90
26691;DHT22;14307;51.718;8.938;2022-07-29T08:26:57;18.30;99.90
26691;DHT22;14307;51.718;8.938;2022-07-29T08:29:24;18.50;99.90
26691;DHT22;14307;51.718;8.938;2022-07-29T08:31:51;18.50;99.90
26691;DHT22;14307;51.718;8.938;2022-07-29T08:34:18;18.60;99.90
26691;DHT22;14307;51.718;8.938;2022-07-29T08:36:52;18.90;99.90
26691;DHT22;14307;51.718;8.938;2022-07-29T08:39:19;19.30;99.90
26691;DHT22;14307;51.718;8.938;2022-07-29T08:41:46;19.50;99.90
26691;DHT22;14307;51.718;8.938;2022-07-29T08:44:23;19.40;99.90
26691;DHT22;14307;51.718;8.938;2022-07-29T08:46:56;19.60;99.90
26691;DHT22;14307;51.718;8.938;2022-07-29T08:49:23;19.80;99.90
26691;DHT22;14307;51.718;8.938;2022-07-29T08:51:50;20.20;99.90
26691;DHT22;14307;51.718;8.938;2022-07-29T08:54:18;20.50;99.90
26691;DHT22;14307;51.718;8.938;2022-07-29T08:56:48;20.10;99.90
26691;DHT22;14307;51.718;8.938;2022-07-29T08:59:19;20.00;99.90
26691;DHT22;14307;51.718;8.938;2022-07-29T09:01:48;20.10;99.90
26691;DHT22;14307;51.718;8.938;2022-07-29T09:04:20;20.20;99.90
26691;DHT22;14307;51.718;8.938;2022-07-29T09:06:50;20.10;99.90
26691;DHT22;14307;51.718;8.938;2022-07-29T09:09:17;19.90;99.90
26691;DHT22;14307;51.718;8.938;2022-07-29T09:11:44;19.90;99.90
26691;DHT22;14307;51.718;8.938;2022-07-29T09:14:12;19.80;99.90
26691;DHT22;14307;51.718;8.938;2022-07-29T09:16:53;19.80;99.90
26691;DHT22;14307;51.718;8.938;2022-07-29T09:19:30;20.00;99.90
26691;DHT22;14307;51.718;8.938;2022-07-29T09:21:59;19.80;99.90
26691;DHT22;14307;51.718;8.938;2022-07-29T09:27:01;20.30;99.90
26691;DHT22;14307;51.718;8.938;2022-07-29T09:29:28;20.40;99.90
26691;DHT22;14307;51.718;8.938;2022-07-29T09:32:06;20.20;99.90
26691;DHT22;14307;51.718;8.938;2022-07-29T09:34:34;20.10;99.90
26691;DHT22;14307;51.718;8.938;2022-07-29T09:37:01;20.10;99.90
26691;DHT22;14307;51.718;8.938;2022-07-29T09:42:00;20.70;99.90
26691;DHT22;14307;51.718;8.938;2022-07-29T09:44:44;20.90;99.90
26691;DHT22;14307;51.718;8.938;2022-07-29T09:47:12;21.30;99.90
26691;DHT22;14307;51.718;8.938;2022-07-29T09:49:54;20.60;99.90
26691;DHT22;14307;51.718;8.938;2022-07-29T09:52:21;20.50;99.90
26691;DHT22;14307;51.718;8.938;2022-07-29T09:54:48;20.50;99.90
26691;DHT22;14307;51.718;8.938;2022-07-29T09:57:23;20.50;99.90
26691;DHT22;14307;51.718;8.938;2022-07-29T10:00:09;20.40;99.90
26691;DHT22;14307;51.718;8.938;2022-07-29T10:02:40;20.10;99.90
26691;DHT22;14307;51.718;8.938;2022-07-29T10:05:18;20.40;99.90
26691;DHT22;14307;51.718;8.938;2022-07-29T10:07:53;20.80;99.90
26691;DHT22;14307;51.718;8.938;2022-07-29T10:10:29;21.10;99.90
26691;DHT22;14307;51.718;8.938;2022-07-29T10:12:59;21.90;99.90
26691;DHT22;14307;51.718;8.938;2022-07-29T10:15:35;22.80;99.90
26691;DHT22;14307;51.718;8.938;2022-07-29T10:18:08;22.80;99.90
26691;DHT22;14307;51.718;8.938;2022-07-29T10:20:35;22.20;99.90
26691;DHT22;14307;51.718;8.938;2022-07-29T10:23:02;22.20;99.90
26691;DHT22;14307;51.718;8.938;2022-07-29T10:25:30;22.30;99.90
26691;DHT22;14307;51.718;8.938;2022-07-29T10:27:57;22.50;99.90
26691;DHT22;14307;51.718;8.938;2022-07-29T10:30:24;22.40;99.90
26691;DHT22;14307;51.718;8.938;2022-07-29T10:41:46;22.20;99.90
26691;DHT22;14307;51.718;8.938;2022-07-29T10:44:17;22.10;99.90
26691;DHT22;14307;51.718;8.938;2022-07-29T10:46:49;22.10;99.90
26691;DHT22;14307;51.718;8.938;2022-07-29T10:49:21;21.90;99.90
26691;DHT22;14307;51.718;8.938;2022-07-29T10:54:37;22.20;99.90
26691;DHT22;14307;51.718;8.938;2022-07-29T10:59:44;23.00;99.90
26691;DHT22;14307;51.718;8.938;2022-07-29T11:02:50;23.10;99.90
26691;DHT22;14307;51.718;8.938;2022-07-29T11:05:21;22.90;99.90
26691;DHT22;14307;51.718;8.938;2022-07-29T11:11:30;22.10;99.90
26691;DHT22;14307;51.718;8.938;2022-07-29T11:13:57;21.90;99.90
26691;DHT22;14307;51.718;8.938;2022-07-29T11:16:25;22.30;99.90
26691;DHT22;14307;51.718;8.938;2022-07-29T11:21:42;22.30;99.90
26691;DHT22;14307;51.718;8.938;2022-07-29T11:24:30;22.10;99.90
26691;DHT22;14307;51.718;8.938;2022-07-29T11:27:08;22.00;99.90
26691;DHT22;14307;51.718;8.938;2022-07-29T11:29:38;22.60;99.90
26691;DHT22;14307;51.718;8.938;2022-07-29T11:32:11;22.50;99.90
26691;DHT22;14307;51.718;8.938;2022-07-29T11:34:44;22.80;99.90
26691;DHT22;14307;51.718;8.938;2022-07-29T11:50:26;22.90;99.90
26691;DHT22;14307;51.718;8.938;2022-07-29T11:52:54;23.10;99.90
26691;DHT22;14307;51.718;8.938;2022-07-29T11:55:22;23.20;99.90
26691;DHT22;14307;51.718;8.938;2022-07-29T11:57:59;23.80;99.90
26691;DHT22;14307;51.718;8.938;2022-07-29T12:00:35;23.70;99.90
26691;DHT22;14307;51.718;8.938;2022-07-29T12:03:05;23.70;99.90
26691;DHT22;14307;51.718;8.938;2022-07-29T12:05:33;23.90;99.90
26691;DHT22;14307;51.718;8.938;2022-07-29T12:08:18;23.90;99.90
26691;DHT22;14307;51.718;8.938;2022-07-29T12:10:47;23.80;99.90
26691;DHT22;14307;51.718;8.938;2022-07-29T12:13:18;24.40;99.90
26691;DHT22;14307;51.718;8.938;2022-07-29T12:15:53;24.30;99.90
26691;DHT22;14307;51.718;8.938;2022-07-29T12:18:20;24.70;99.90
26691;DHT22;14307;51.718;8.938;2022-07-29T12:20:57;24.40;99.90
26691;DHT22;14307;51.718;8.938;2022-07-29T12:23:24;24.00;99.90
26691;DHT22;14307;51.718;8.938;2022-07-29T12:25:55;24.10;99.90
26691;DHT22;14307;51.718;8.938;2022-07-29T12:28:22;24.30;99.90
26691;DHT22;14307;51.718;8.938;2022-07-29T12:30:53;24.60;99.90
26691;DHT22;14307;51.718;8.938;2022-07-29T12:33:27;24.80;99.90
26691;DHT22;14307;51.718;8.938;2022-07-29T12:35:57;24.60;99.90
26691;DHT22;14307;51.718;8.938;2022-07-29T12:38:36;25.00;99.90
26691;DHT22;14307;51.718;8.938;2022-07-29T12:41:03;25.40;99.90
26691;DHT22;14307;51.718;8.938;2022-07-29T12:43:31;25.40;99.90
26691;DHT22;14307;51.718;8.938;2022-07-29T12:46:14;25.30;99.90
26691;DHT22;14307;51.718;8.938;2022-07-29T12:48:42;25.50;99.90
26691;DHT22;14307;51.718;8.938;2022-07-29T12:51:10;25.90;99.90
26691;DHT22;14307;51.718;8.938;2022-07-29T12:53:38;26.10;99.90
26691;DHT22;14307;51.718;8.938;2022-07-29T12:56:16;25.80;99.90
26691;DHT22;14307;51.718;8.938;2022-07-29T12:59:20;25.80;99.90
26691;DHT22;14307;51.718;8.938;2022-07-29T13:01:48;25.90;99.90
26691;DHT22;14307;51.718;8.938;2022-07-29T13:04:33;25.90;99.90
26691;DHT22;14307;51.718;8.938;2022-07-29T13:07:05;25.80;99.90
26691;DHT22;14307;51.718;8.938;2022-07-29T13:09:51;25.60;99.90
26691;DHT22;14307;51.718;8.938;2022-07-29T13:12:18;25.50;99.90
26691;DHT22;14307;51.718;8.938;2022-07-29T13:14:47;25.80;99.90
26691;DHT22;14307;51.718;8.938;2022-07-29T13:17:14;25.70;99.90
26691;DHT22;14307;51.718;8.938;2022-07-29T13:19:50;25.80;99.90
26691;DHT22;14307;51.718;8.938;2022-07-29T13:22:22;25.80;99.90
26691;DHT22;14307;51.718;8.938;2022-07-29T13:24:57;25.90;99.90
26691;DHT22;14307;51.718;8.938;2022-07-29T13:27:28;25.80;99.90
26691;DHT22;14307;51.718;8.938;2022-07-29T13:29:57;25.80;99.90
26691;DHT22;14307;51.718;8.938;2022-07-29T13:32:25;25.90;99.90
26691;DHT22;14307;51.718;8.938;2022-07-29T13:34:59;25.70;99.90
26691;DHT22;14307;51.718;8.938;2022-07-29T13:37:27;25.70;99.90
26691;DHT22;14307;51.718;8.938;2022-07-29T13:39:56;26.20;99.90
26691;DHT22;14307;51.718;8.938;2022-07-29T13:42:23;26.70;99.90
26691;DHT22;14307;51.718;8.938;2022-07-29T13:44:52;26.70;99.90
26691;DHT22;14307;51.718;8.938;2022-07-29T13:47:19;27.30;99.90
26691;DHT22;14307;51.718;8.938;2022-07-29T13:49:47;27.70;99.90
26691;DHT22;14307;51.718;8.938;2022-07-29T13:52:14;27.90;99.90
26691;DHT22;14307;51.718;8.938;2022-07-29T13:54:42;27.50;99.90
26691;DHT22;14307;51.718;8.938;2022-07-29T13:57:10;27.20;99.90
26691;DHT22;14307;51.718;8.938;2022-07-29T13:59:41;27.00;99.90
26691;DHT22;14307;51.718;8.938;2022-07-29T14:02:09;26.20;99.90
26691;DHT22;14307;51.718;8.938;2022-07-29T14:04:36;26.20;99.90
26691;DHT22;14307;51.718;8.938;2022-07-29T14:07:06;26.70;99.90
26691;DHT22;14307;51.718;8.938;2022-07-29T14:09:33;26.90;99.90
26691;DHT22;14307;51.718;8.938;2022-07-29T14:12:07;27.00;99.90
26691;DHT22;14307;51.718;8.938;2022-07-29T14:14:34;27.10;99.90
26691;DHT22;14307;51.718;8.938;2022-07-29T14:17:03;27.00;99.90
26691;DHT22;14307;51.718;8.938;2022-07-29T14:19:30;27.00;99.90
26691;DHT22;14307;51.718;8.938;2022-07-29T14:21:58;27.20;99.90
26691;DHT22;14307;51.718;8.938;2022-07-29T14:24:25;27.30;99.90
26691;DHT22;14307;51.718;8.938;2022-07-29T14:26:52;26.90;99.90
26691;DHT22;14307;51.718;8.938;2022-07-29T14:29:19;26.30;99.90
26691;DHT22;14307;51.718;8.938;2022-07-29T14:31:46;26.10;99.90
26691;DHT22;14307;51.718;8.938;2022-07-29T14:34:13;26.40;99.90
26691;DHT22;14307;51.718;8.938;2022-07-29T14:36:42;26.20;99.90
26691;DHT22;14307;51.718;8.938;2022-07-29T14:39:10;26.10;99.90
26691;DHT22;14307;51.718;8.938;2022-07-29T14:41:36;26.10;99.90
26691;DHT22;14307;51.718;8.938;2022-07-29T14:44:04;26.20;99.90
26691;DHT22;14307;51.718;8.938;2022-07-29T14:46:31;26.70;99.90
26691;DHT22;14307;51.718;8.938;2022-07-29T14:48:58;27.20;99.90
26691;DHT22;14307;51.718;8.938;2022-07-29T14:51:24;27.40;99.90
26691;DHT22;14307;51.718;8.938;2022-07-29T14:53:58;26.90;99.90
26691;DHT22;14307;51.718;8.938;2022-07-29T14:56:25;26.60;99.90
26691;DHT22;14307;51.718;8.938;2022-07-29T14:59:11;26.60;99.90
26691;DHT22;14307;51.718;8.938;2022-07-29T15:01:38;26.50;99.90
26691;DHT22;14307;51.718;8.938;2022-07-29T15:04:05;26.50;99.90
26691;DHT22;14307;51.718;8.938;2022-07-29T15:06:32;26.60;99.90
26691;DHT22;14307;51.718;8.938;2022-07-29T15:08:59;26.60;99.90
26691;DHT22;14307;51.718;8.938;2022-07-29T15:11:25;26.10;99.90
26691;DHT22;14307;51.718;8.938;2022-07-29T15:13:52;25.90;99.90
26691;DHT22;14307;51.718;8.938;2022-07-29T15:16:19;25.90;99.90
26691;DHT22;14307;51.718;8.938;2022-07-29T15:18:46;26.20;99.90
26691;DHT22;14307;51.718;8.938;2022-07-29T15:21:12;26.00;99.90
26691;DHT22;14307;51.718;8.938;2022-07-29T15:23:40;26.00;99.90
26691;DHT22;14307;51.718;8.938;2022-07-29T15:26:06;26.10;99.90
26691;DHT22;14307;51.718;8.938;2022-07-29T15:28:33;26.20;99.90
26691;DHT22;14307;51.718;8.938;2022-07-29T15:31:00;26.00;99.90
26691;DHT22;14307;51.718;8.938;2022-07-29T15:33:26;26.10;99.90
26691;DHT22;14307;51.718;8.938;2022-07-29T15:35:55;26.10;99.90
26691;DHT22;14307;51.718;8.938;2022-07-29T15:38:22;26.10;99.90
26691;DHT22;14307;51.718;8.938;2022-07-29T15:40:54;26.20;99.90
26691;DHT22;14307;51.718;8.938;2022-07-29T15:43:22;26.20;99.90
26691;DHT22;14307;51.718;8.938;2022-07-29T15:45:48;25.90;99.90
26691;DHT22;14307;51.718;8.938;2022-07-29T15:48:37;25.90;99.90
26691;DHT22;14307;51.718;8.938;2022-07-29T15:51:04;25.70;99.90
26691;DHT22;14307;51.718;8.938;2022-07-29T15:53:31;25.40;99.90
26691;DHT22;14307;51.718;8.938;2022-07-29T15:56:00;25.30;99.90
26691;DHT22;14307;51.718;8.938;2022-07-29T15:58:27;25.50;99.90
26691;DHT22;14307;51.718;8.938;2022-07-29T16:00:54;25.60;99.90
26691;DHT22;14307;51.718;8.938;2022-07-29T16:03:21;25.40;99.90
26691;DHT22;14307;51.718;8.938;2022-07-29T16:05:48;25.30;99.90
26691;DHT22;14307;51.718;8.938;2022-07-29T16:08:15;25.10;99.90
26691;DHT22;14307;51.718;8.938;2022-07-29T16:10:44;25.10;99.90
26691;DHT22;14307;51.718;8.938;2022-07-29T16:13:11;25.30;99.90
26691;DHT22;14307;51.718;8.938;2022-07-29T16:15:44;25.30;99.90
26691;DHT22;14307;51.718;8.938;2022-07-29T16:18:28;25.40;99.90
26691;DHT22;14307;51.718;8.938;2022-07-29T16:20:56;25.10;99.90
26691;DHT22;14307;51.718;8.938;2022-07-29T16:23:23;25.00;99.90
26691;DHT22;14307;51.718;8.938;2022-07-29T16:25:50;25.00;99.90
26691;DHT22;14307;51.718;8.938;2022-07-29T16:28:26;24.90;99.90
26691;DHT22;14307;51.718;8.938;2022-07-29T16:30:53;24.80;99.90
26691;DHT22;14307;51.718;8.938;2022-07-29T16:33:20;24.80;99.90
26691;DHT22;14307;51.718;8.938;2022-07-29T16:35:47;24.90;99.90